sensor_id;sensor_type;location;lat;lon;timestamp;P1;durP1;ratioP1;P2;durP2;ratioP2
49978;SDS011;35869;50.990;6.962;2023-04-06T00:01:58;10.93;;;7.97;;
49978;SDS011;35869;50.990;6.962;2023-04-06T00:06:58;12.68;;;8.50;;
49978;SDS011;35869;50.990;6.962;2023-04-06T00:11:59;12.13;;;8.43;;
49978;SDS011;35869;50.990;6.962;2023-04-06T00:16:59;13.18;;;8.68;;
49978;SDS011;35869;50.990;6.962;2023-04-06T00:21:59;10.43;;;8.15;;
49978;SDS011;35869;50.990;6.962;2023-04-06T00:26:59;14.73;;;9.57;;
49978;SDS011;35869;50.990;6.962;2023-04-06T00:31:59;12.38;;;8.95;;
49978;SDS011;35869;50.990;6.962;2023-04-06T00:37:00;14.10;;;9.98;;
49978;SDS011;35869;50.990;6.962;2023-04-06T00:42:00;14.15;;;8.65;;
49978;SDS011;35869;50.990;6.962;2023-04-06T00:47:07;12.40;;;8.57;;
49978;SDS011;35869;50.990;6.962;2023-04-06T00:52:07;11.70;;;8.17;;
49978;SDS011;35869;50.990;6.962;2023-04-06T00:57:07;11.95;;;9.35;;
49978;SDS011;35869;50.990;6.962;2023-04-06T01:02:08;11.73;;;9.07;;
49978;SDS011;35869;50.990;6.962;2023-04-06T01:07:08;12.47;;;8.63;;
49978;SDS011;35869;50.990;6.962;2023-04-06T01:12:08;11.02;;;8.82;;
49978;SDS011;35869;50.990;6.962;2023-04-06T01:17:09;12.02;;;9.05;;
49978;SDS011;35869;50.990;6.962;2023-04-06T01:22:13;11.23;;;8.43;;
49978;SDS011;35869;50.990;6.962;2023-04-06T01:27:16;10.55;;;8.25;;
49978;SDS011;35869;50.990;6.962;2023-04-06T01:32:16;10.20;;;8.18;;
49978;SDS011;35869;50.990;6.962;2023-04-06T01:37:16;14.40;;;9.52;;
49978;SDS011;35869;50.990;6.962;2023-04-06T01:42:16;11.48;;;9.25;;
49978;SDS011;35869;50.990;6.962;2023-04-06T01:47:16;12.88;;;9.75;;
49978;SDS011;35869;50.990;6.962;2023-04-06T01:52:17;15.70;;;9.00;;
49978;SDS011;35869;50.990;6.962;2023-04-06T01:57:17;11.57;;;8.83;;
49978;SDS011;35869;50.990;6.962;2023-04-06T02:02:17;13.32;;;9.80;;
49978;SDS011;35869;50.990;6.962;2023-04-06T02:07:17;10.15;;;8.68;;
49978;SDS011;35869;50.990;6.962;2023-04-06T02:12:18;11.80;;;9.00;;
49978;SDS011;35869;50.990;6.962;2023-04-06T02:17:18;14.27;;;9.88;;
49978;SDS011;35869;50.990;6.962;2023-04-06T02:22:18;9.75;;;8.63;;
49978;SDS011;35869;50.990;6.962;2023-04-06T02:27:18;12.68;;;8.75;;
49978;SDS011;35869;50.990;6.962;2023-04-06T02:32:19;14.77;;;9.00;;
49978;SDS011;35869;50.990;6.962;2023-04-06T02:37:19;11.30;;;8.82;;
49978;SDS011;35869;50.990;6.962;2023-04-06T02:42:19;12.83;;;9.50;;
49978;SDS011;35869;50.990;6.962;2023-04-06T02:47:19;12.65;;;9.32;;
49978;SDS011;35869;50.990;6.962;2023-04-06T02:52:20;11.85;;;8.55;;
49978;SDS011;35869;50.990;6.962;2023-04-06T02:57:20;11.23;;;9.55;;
49978;SDS011;35869;50.990;6.962;2023-04-06T03:02:20;12.38;;;9.35;;
49978;SDS011;35869;50.990;6.962;2023-04-06T03:07:20;14.02;;;9.32;;
49978;SDS011;35869;50.990;6.962;2023-04-06T03:12:21;14.00;;;9.00;;
49978;SDS011;35869;50.990;6.962;2023-04-06T03:17:21;13.10;;;9.75;;
49978;SDS011;35869;50.990;6.962;2023-04-06T03:22:21;13.75;;;9.38;;
49978;SDS011;35869;50.990;6.962;2023-04-06T03:27:21;9.88;;;8.27;;
49978;SDS011;35869;50.990;6.962;2023-04-06T03:32:21;12.80;;;9.55;;
49978;SDS011;35869;50.990;6.962;2023-04-06T03:37:22;12.60;;;8.13;;
49978;SDS011;35869;50.990;6.962;2023-04-06T03:42:22;11.68;;;8.07;;
49978;SDS011;35869;50.990;6.962;2023-04-06T03:47:22;11.50;;;8.52;;
49978;SDS011;35869;50.990;6.962;2023-04-06T03:52:22;12.30;;;9.05;;
49978;SDS011;35869;50.990;6.962;2023-04-06T03:57:22;11.90;;;9.18;;
49978;SDS011;35869;50.990;6.962;2023-04-06T04:02:23;13.52;;;9.50;;
49978;SDS011;35869;50.990;6.962;2023-04-06T04:07:23;12.38;;;8.35;;
49978;SDS011;35869;50.990;6.962;2023-04-06T04:12:23;13.02;;;8.98;;
49978;SDS011;35869;50.990;6.962;2023-04-06T04:17:24;10.48;;;8.30;;
49978;SDS011;35869;50.990;6.962;2023-04-06T04:22:24;13.73;;;8.93;;
49978;SDS011;35869;50.990;6.962;2023-04-06T04:27:24;12.23;;;8.85;;
49978;SDS011;35869;50.990;6.962;2023-04-06T04:32:24;11.45;;;8.27;;
49978;SDS011;35869;50.990;6.962;2023-04-06T04:37:25;12.00;;;9.40;;
49978;SDS011;35869;50.990;6.962;2023-04-06T04:42:25;13.38;;;10.05;;
49978;SDS011;35869;50.990;6.962;2023-04-06T04:47:25;13.27;;;9.00;;
49978;SDS011;35869;50.990;6.962;2023-04-06T04:52:25;10.80;;;8.77;;
49978;SDS011;35869;50.990;6.962;2023-04-06T04:57:25;10.77;;;8.60;;
49978;SDS011;35869;50.990;6.962;2023-04-06T05:02:26;15.68;;;9.77;;
49978;SDS011;35869;50.990;6.962;2023-04-06T05:07:26;14.30;;;9.93;;
49978;SDS011;35869;50.990;6.962;2023-04-06T05:12:26;12.18;;;9.38;;
49978;SDS011;35869;50.990;6.962;2023-04-06T05:17:26;12.50;;;8.45;;
49978;SDS011;35869;50.990;6.962;2023-04-06T05:22:27;17.25;;;9.80;;
49978;SDS011;35869;50.990;6.962;2023-04-06T05:27:27;13.35;;;9.13;;
49978;SDS011;35869;50.990;6.962;2023-04-06T05:32:27;13.10;;;8.20;;
49978;SDS011;35869;50.990;6.962;2023-04-06T05:37:28;12.93;;;8.07;;
49978;SDS011;35869;50.990;6.962;2023-04-06T05:42:35;12.82;;;6.75;;
49978;SDS011;35869;50.990;6.962;2023-04-06T05:47:36;10.93;;;7.20;;
49978;SDS011;35869;50.990;6.962;2023-04-06T05:52:37;9.63;;;6.82;;
49978;SDS011;35869;50.990;6.962;2023-04-06T05:57:37;7.70;;;6.80;;
49978;SDS011;35869;50.990;6.962;2023-04-06T06:02:37;11.38;;;7.63;;
49978;SDS011;35869;50.990;6.962;2023-04-06T06:07:38;9.85;;;6.68;;
49978;SDS011;35869;50.990;6.962;2023-04-06T06:12:38;9.15;;;7.28;;
49978;SDS011;35869;50.990;6.962;2023-04-06T06:17:38;8.75;;;6.60;;
49978;SDS011;35869;50.990;6.962;2023-04-06T06:22:38;11.57;;;7.40;;
49978;SDS011;35869;50.990;6.962;2023-04-06T06:27:38;10.85;;;8.32;;
49978;SDS011;35869;50.990;6.962;2023-04-06T06:32:39;9.57;;;7.95;;
49978;SDS011;35869;50.990;6.962;2023-04-06T06:37:39;16.15;;;8.45;;
49978;SDS011;35869;50.990;6.962;2023-04-06T06:42:39;9.63;;;7.13;;
49978;SDS011;35869;50.990;6.962;2023-04-06T06:47:39;10.88;;;8.68;;
49978;SDS011;35869;50.990;6.962;2023-04-06T06:52:40;9.40;;;7.32;;
49978;SDS011;35869;50.990;6.962;2023-04-06T06:57:40;15.63;;;9.57;;
49978;SDS011;35869;50.990;6.962;2023-04-06T07:02:40;11.13;;;8.07;;
49978;SDS011;35869;50.990;6.962;2023-04-06T07:07:40;12.63;;;7.77;;
49978;SDS011;35869;50.990;6.962;2023-04-06T07:12:41;10.60;;;8.05;;
49978;SDS011;35869;50.990;6.962;2023-04-06T07:17:41;12.20;;;7.85;;
49978;SDS011;35869;50.990;6.962;2023-04-06T07:22:42;10.45;;;8.07;;
49978;SDS011;35869;50.990;6.962;2023-04-06T07:27:43;12.90;;;8.60;;
49978;SDS011;35869;50.990;6.962;2023-04-06T07:32:43;11.68;;;8.50;;
49978;SDS011;35869;50.990;6.962;2023-04-06T07:37:43;14.90;;;7.60;;
49978;SDS011;35869;50.990;6.962;2023-04-06T07:42:43;7.22;;;5.80;;
49978;SDS011;35869;50.990;6.962;2023-04-06T07:47:44;20.30;;;7.38;;
49978;SDS011;35869;50.990;6.962;2023-04-06T07:52:44;10.68;;;5.70;;
49978;SDS011;35869;50.990;6.962;2023-04-06T07:57:44;9.60;;;6.45;;
49978;SDS011;35869;50.990;6.962;2023-04-06T08:02:44;8.88;;;6.78;;
49978;SDS011;35869;50.990;6.962;2023-04-06T08:07:44;11.57;;;6.45;;
49978;SDS011;35869;50.990;6.962;2023-04-06T08:12:45;8.52;;;6.25;;
49978;SDS011;35869;50.990;6.962;2023-04-06T08:17:45;11.30;;;7.15;;
49978;SDS011;35869;50.990;6.962;2023-04-06T08:22:45;10.13;;;6.57;;
49978;SDS011;35869;50.990;6.962;2023-04-06T08:27:45;10.18;;;7.03;;
49978;SDS011;35869;50.990;6.962;2023-04-06T08:32:45;13.02;;;7.22;;
49978;SDS011;35869;50.990;6.962;2023-04-06T08:37:46;10.13;;;6.40;;
49978;SDS011;35869;50.990;6.962;2023-04-06T08:42:53;10.60;;;6.80;;
49978;SDS011;35869;50.990;6.962;2023-04-06T08:47:54;10.82;;;6.25;;
49978;SDS011;35869;50.990;6.962;2023-04-06T08:52:57;12.32;;;7.45;;
49978;SDS011;35869;50.990;6.962;2023-04-06T08:57:59;9.68;;;6.43;;
49978;SDS011;35869;50.990;6.962;2023-04-06T09:03:00;9.25;;;7.10;;
49978;SDS011;35869;50.990;6.962;2023-04-06T09:08:01;12.55;;;7.47;;
49978;SDS011;35869;50.990;6.962;2023-04-06T09:13:04;8.73;;;6.85;;
49978;SDS011;35869;50.990;6.962;2023-04-06T09:18:05;12.80;;;7.20;;
49978;SDS011;35869;50.990;6.962;2023-04-06T09:23:05;16.73;;;8.68;;
49978;SDS011;35869;50.990;6.962;2023-04-06T09:28:05;16.98;;;7.85;;
49978;SDS011;35869;50.990;6.962;2023-04-06T09:33:06;12.50;;;7.60;;
49978;SDS011;35869;50.990;6.962;2023-04-06T09:38:10;12.95;;;8.18;;
49978;SDS011;35869;50.990;6.962;2023-04-06T09:43:11;14.05;;;8.20;;
49978;SDS011;35869;50.990;6.962;2023-04-06T09:48:11;19.63;;;8.13;;
49978;SDS011;35869;50.990;6.962;2023-04-06T09:53:11;11.73;;;8.45;;
49978;SDS011;35869;50.990;6.962;2023-04-06T09:58:13;13.57;;;8.43;;
49978;SDS011;35869;50.990;6.962;2023-04-06T10:03:26;15.02;;;9.52;;
49978;SDS011;35869;50.990;6.962;2023-04-06T10:08:41;18.52;;;9.15;;
49978;SDS011;35869;50.990;6.962;2023-04-06T10:13:45;12.30;;;8.68;;
49978;SDS011;35869;50.990;6.962;2023-04-06T10:18:50;15.75;;;8.73;;
49978;SDS011;35869;50.990;6.962;2023-04-06T10:23:57;12.02;;;8.05;;
49978;SDS011;35869;50.990;6.962;2023-04-06T10:29:02;14.73;;;8.00;;
49978;SDS011;35869;50.990;6.962;2023-04-06T10:34:03;17.63;;;8.85;;
49978;SDS011;35869;50.990;6.962;2023-04-06T10:39:04;16.50;;;9.57;;
49978;SDS011;35869;50.990;6.962;2023-04-06T10:44:05;13.50;;;8.55;;
49978;SDS011;35869;50.990;6.962;2023-04-06T10:49:12;15.27;;;9.98;;
49978;SDS011;35869;50.990;6.962;2023-04-06T10:54:12;13.18;;;9.02;;
49978;SDS011;35869;50.990;6.962;2023-04-06T10:59:12;11.03;;;8.23;;
49978;SDS011;35869;50.990;6.962;2023-04-06T11:04:15;16.67;;;9.40;;
49978;SDS011;35869;50.990;6.962;2023-04-06T11:09:26;15.18;;;9.27;;
49978;SDS011;35869;50.990;6.962;2023-04-06T11:14:27;12.02;;;8.57;;
49978;SDS011;35869;50.990;6.962;2023-04-06T11:19:28;12.27;;;8.02;;
49978;SDS011;35869;50.990;6.962;2023-04-06T11:24:28;15.45;;;10.00;;
49978;SDS011;35869;50.990;6.962;2023-04-06T11:29:29;14.38;;;9.93;;
49978;SDS011;35869;50.990;6.962;2023-04-06T11:34:30;16.10;;;9.13;;
49978;SDS011;35869;50.990;6.962;2023-04-06T11:39:37;14.73;;;9.38;;
49978;SDS011;35869;50.990;6.962;2023-04-06T11:44:43;15.35;;;9.63;;
49978;SDS011;35869;50.990;6.962;2023-04-06T11:49:43;13.77;;;9.27;;
49978;SDS011;35869;50.990;6.962;2023-04-06T11:54:44;15.30;;;8.23;;
49978;SDS011;35869;50.990;6.962;2023-04-06T11:59:46;12.20;;;8.68;;
49978;SDS011;35869;50.990;6.962;2023-04-06T12:04:46;11.52;;;8.23;;
49978;SDS011;35869;50.990;6.962;2023-04-06T12:09:47;14.90;;;9.27;;
49978;SDS011;35869;50.990;6.962;2023-04-06T12:14:47;12.07;;;7.47;;
49978;SDS011;35869;50.990;6.962;2023-04-06T12:19:47;11.25;;;8.43;;
49978;SDS011;35869;50.990;6.962;2023-04-06T12:24:48;11.98;;;8.45;;
49978;SDS011;35869;50.990;6.962;2023-04-06T12:29:48;13.25;;;8.20;;
49978;SDS011;35869;50.990;6.962;2023-04-06T12:34:48;12.10;;;8.23;;
49978;SDS011;35869;50.990;6.962;2023-04-06T12:39:48;11.93;;;7.55;;
49978;SDS011;35869;50.990;6.962;2023-04-06T12:44:48;14.68;;;8.68;;
49978;SDS011;35869;50.990;6.962;2023-04-06T12:49:49;18.20;;;8.80;;
49978;SDS011;35869;50.990;6.962;2023-04-06T12:54:49;13.95;;;8.88;;
49978;SDS011;35869;50.990;6.962;2023-04-06T12:59:49;12.57;;;8.73;;
49978;SDS011;35869;50.990;6.962;2023-04-06T13:04:49;12.48;;;8.27;;
49978;SDS011;35869;50.990;6.962;2023-04-06T13:09:51;12.73;;;7.80;;
49978;SDS011;35869;50.990;6.962;2023-04-06T13:14:51;12.02;;;7.30;;
49978;SDS011;35869;50.990;6.962;2023-04-06T13:19:51;10.95;;;6.78;;
49978;SDS011;35869;50.990;6.962;2023-04-06T13:24:51;10.27;;;5.65;;
49978;SDS011;35869;50.990;6.962;2023-04-06T13:29:52;9.43;;;5.07;;
49978;SDS011;35869;50.990;6.962;2023-04-06T13:34:54;9.07;;;5.63;;
49978;SDS011;35869;50.990;6.962;2023-04-06T13:39:54;7.68;;;5.25;;
49978;SDS011;35869;50.990;6.962;2023-04-06T13:44:55;11.43;;;6.35;;
49978;SDS011;35869;50.990;6.962;2023-04-06T13:49:55;8.97;;;5.23;;
49978;SDS011;35869;50.990;6.962;2023-04-06T13:54:55;10.15;;;5.90;;
49978;SDS011;35869;50.990;6.962;2023-04-06T13:59:55;8.65;;;5.85;;
49978;SDS011;35869;50.990;6.962;2023-04-06T14:04:56;10.10;;;5.68;;
49978;SDS011;35869;50.990;6.962;2023-04-06T14:09:56;9.77;;;5.20;;
49978;SDS011;35869;50.990;6.962;2023-04-06T14:14:56;7.27;;;4.83;;
49978;SDS011;35869;50.990;6.962;2023-04-06T14:19:56;7.13;;;4.75;;
49978;SDS011;35869;50.990;6.962;2023-04-06T14:24:56;9.70;;;5.28;;
49978;SDS011;35869;50.990;6.962;2023-04-06T14:29:57;8.68;;;5.40;;
49978;SDS011;35869;50.990;6.962;2023-04-06T14:34:57;7.93;;;5.28;;
49978;SDS011;35869;50.990;6.962;2023-04-06T14:39:57;7.30;;;5.20;;
49978;SDS011;35869;50.990;6.962;2023-04-06T14:44:57;6.68;;;4.40;;
49978;SDS011;35869;50.990;6.962;2023-04-06T14:49:58;6.07;;;4.45;;
49978;SDS011;35869;50.990;6.962;2023-04-06T14:54:58;6.55;;;4.80;;
49978;SDS011;35869;50.990;6.962;2023-04-06T14:59:58;6.78;;;4.20;;
49978;SDS011;35869;50.990;6.962;2023-04-06T15:04:58;5.53;;;4.32;;
49978;SDS011;35869;50.990;6.962;2023-04-06T15:09:59;6.10;;;4.43;;
49978;SDS011;35869;50.990;6.962;2023-04-06T15:14:59;7.63;;;5.43;;
49978;SDS011;35869;50.990;6.962;2023-04-06T15:19:59;5.40;;;4.60;;
49978;SDS011;35869;50.990;6.962;2023-04-06T15:24:59;6.80;;;4.78;;
49978;SDS011;35869;50.990;6.962;2023-04-06T15:29:59;7.00;;;5.00;;
49978;SDS011;35869;50.990;6.962;2023-04-06T15:35:00;7.70;;;4.93;;
49978;SDS011;35869;50.990;6.962;2023-04-06T15:40:00;9.02;;;5.95;;
49978;SDS011;35869;50.990;6.962;2023-04-06T15:45:00;6.00;;;4.80;;
49978;SDS011;35869;50.990;6.962;2023-04-06T15:50:00;6.47;;;5.18;;
49978;SDS011;35869;50.990;6.962;2023-04-06T15:55:04;7.13;;;5.65;;
49978;SDS011;35869;50.990;6.962;2023-04-06T16:00:06;7.93;;;5.70;;
49978;SDS011;35869;50.990;6.962;2023-04-06T16:05:06;7.53;;;6.25;;
49978;SDS011;35869;50.990;6.962;2023-04-06T16:10:07;9.93;;;6.93;;
49978;SDS011;35869;50.990;6.962;2023-04-06T16:15:08;9.60;;;6.00;;
49978;SDS011;35869;50.990;6.962;2023-04-06T16:20:09;9.03;;;6.33;;
49978;SDS011;35869;50.990;6.962;2023-04-06T16:25:09;9.80;;;7.57;;
49978;SDS011;35869;50.990;6.962;2023-04-06T16:30:09;8.80;;;5.80;;
49978;SDS011;35869;50.990;6.962;2023-04-06T16:35:10;13.27;;;8.03;;
49978;SDS011;35869;50.990;6.962;2023-04-06T16:40:10;10.18;;;7.97;;
49978;SDS011;35869;50.990;6.962;2023-04-06T16:45:11;9.63;;;6.50;;
49978;SDS011;35869;50.990;6.962;2023-04-06T16:50:13;10.98;;;7.32;;
49978;SDS011;35869;50.990;6.962;2023-04-06T16:55:14;12.85;;;8.07;;
49978;SDS011;35869;50.990;6.962;2023-04-06T17:05:15;11.73;;;7.43;;
49978;SDS011;35869;50.990;6.962;2023-04-06T17:10:15;10.48;;;7.68;;
49978;SDS011;35869;50.990;6.962;2023-04-06T17:15:16;8.57;;;6.37;;
49978;SDS011;35869;50.990;6.962;2023-04-06T17:20:16;10.00;;;6.88;;
49978;SDS011;35869;50.990;6.962;2023-04-06T17:25:17;13.43;;;8.40;;
49978;SDS011;35869;50.990;6.962;2023-04-06T17:30:18;9.80;;;7.33;;
49978;SDS011;35869;50.990;6.962;2023-04-06T17:35:18;10.73;;;7.77;;
49978;SDS011;35869;50.990;6.962;2023-04-06T17:40:18;12.27;;;8.07;;
49978;SDS011;35869;50.990;6.962;2023-04-06T17:45:19;14.63;;;9.37;;
49978;SDS011;35869;50.990;6.962;2023-04-06T17:50:19;12.55;;;9.90;;
49978;SDS011;35869;50.990;6.962;2023-04-06T17:55:19;11.45;;;8.48;;
49978;SDS011;35869;50.990;6.962;2023-04-06T18:00:19;15.20;;;9.77;;
49978;SDS011;35869;50.990;6.962;2023-04-06T18:05:20;9.90;;;7.77;;
49978;SDS011;35869;50.990;6.962;2023-04-06T18:10:21;8.50;;;7.22;;
49978;SDS011;35869;50.990;6.962;2023-04-06T18:15:21;11.07;;;8.95;;
49978;SDS011;35869;50.990;6.962;2023-04-06T18:20:22;12.48;;;9.65;;
49978;SDS011;35869;50.990;6.962;2023-04-06T18:25:22;10.20;;;8.30;;
49978;SDS011;35869;50.990;6.962;2023-04-06T18:30:22;10.48;;;7.93;;
49978;SDS011;35869;50.990;6.962;2023-04-06T18:35:22;12.15;;;8.70;;
49978;SDS011;35869;50.990;6.962;2023-04-06T18:40:29;12.05;;;8.95;;
49978;SDS011;35869;50.990;6.962;2023-04-06T18:45:31;10.05;;;7.68;;
49978;SDS011;35869;50.990;6.962;2023-04-06T18:50:32;13.07;;;9.18;;
49978;SDS011;35869;50.990;6.962;2023-04-06T18:55:32;20.33;;;8.80;;
49978;SDS011;35869;50.990;6.962;2023-04-06T19:00:33;12.70;;;9.00;;
49978;SDS011;35869;50.990;6.962;2023-04-06T19:05:33;10.20;;;8.40;;
49978;SDS011;35869;50.990;6.962;2023-04-06T19:10:34;11.57;;;9.07;;
49978;SDS011;35869;50.990;6.962;2023-04-06T19:15:34;11.77;;;9.27;;
49978;SDS011;35869;50.990;6.962;2023-04-06T19:20:35;12.60;;;9.90;;
49978;SDS011;35869;50.990;6.962;2023-04-06T19:25:35;14.20;;;9.93;;
49978;SDS011;35869;50.990;6.962;2023-04-06T19:30:36;14.55;;;10.77;;
49978;SDS011;35869;50.990;6.962;2023-04-06T19:35:37;14.23;;;12.43;;
49978;SDS011;35869;50.990;6.962;2023-04-06T19:40:37;37.88;;;24.25;;
49978;SDS011;35869;50.990;6.962;2023-04-06T19:45:38;19.60;;;15.30;;
49978;SDS011;35869;50.990;6.962;2023-04-06T19:50:38;16.05;;;12.50;;
49978;SDS011;35869;50.990;6.962;2023-04-06T19:55:39;15.77;;;11.90;;
49978;SDS011;35869;50.990;6.962;2023-04-06T20:05:39;11.75;;;8.80;;
49978;SDS011;35869;50.990;6.962;2023-04-06T20:10:40;11.80;;;9.32;;
49978;SDS011;35869;50.990;6.962;2023-04-06T20:15:41;11.88;;;9.57;;
49978;SDS011;35869;50.990;6.962;2023-04-06T20:20:41;13.43;;;8.98;;
49978;SDS011;35869;50.990;6.962;2023-04-06T20:25:41;12.52;;;8.57;;
49978;SDS011;35869;50.990;6.962;2023-04-06T20:30:42;15.98;;;9.43;;
49978;SDS011;35869;50.990;6.962;2023-04-06T20:35:42;12.60;;;9.20;;
49978;SDS011;35869;50.990;6.962;2023-04-06T20:40:43;11.48;;;8.43;;
49978;SDS011;35869;50.990;6.962;2023-04-06T20:45:44;12.95;;;9.02;;
49978;SDS011;35869;50.990;6.962;2023-04-06T20:50:45;9.82;;;8.00;;
49978;SDS011;35869;50.990;6.962;2023-04-06T20:55:45;10.52;;;7.85;;
49978;SDS011;35869;50.990;6.962;2023-04-06T21:00:48;10.93;;;7.80;;
49978;SDS011;35869;50.990;6.962;2023-04-06T21:05:50;10.90;;;8.63;;
49978;SDS011;35869;50.990;6.962;2023-04-06T21:10:51;10.90;;;8.40;;
49978;SDS011;35869;50.990;6.962;2023-04-06T21:15:51;11.50;;;8.18;;
49978;SDS011;35869;50.990;6.962;2023-04-06T21:20:51;11.32;;;8.57;;
49978;SDS011;35869;50.990;6.962;2023-04-06T21:25:52;11.97;;;8.67;;
49978;SDS011;35869;50.990;6.962;2023-04-06T21:30:53;12.07;;;9.40;;
49978;SDS011;35869;50.990;6.962;2023-04-06T21:40:54;10.90;;;7.40;;
49978;SDS011;35869;50.990;6.962;2023-04-06T21:50:55;9.38;;;7.90;;
49978;SDS011;35869;50.990;6.962;2023-04-06T21:55:55;13.55;;;9.32;;
49978;SDS011;35869;50.990;6.962;2023-04-06T22:00:55;11.52;;;9.13;;
49978;SDS011;35869;50.990;6.962;2023-04-06T22:05:56;13.25;;;9.57;;
49978;SDS011;35869;50.990;6.962;2023-04-06T22:10:56;12.68;;;10.73;;
49978;SDS011;35869;50.990;6.962;2023-04-06T22:15:56;12.75;;;10.73;;
49978;SDS011;35869;50.990;6.962;2023-04-06T22:20:57;14.20;;;10.18;;
49978;SDS011;35869;50.990;6.962;2023-04-06T22:25:57;16.90;;;12.10;;
49978;SDS011;35869;50.990;6.962;2023-04-06T22:30:57;15.33;;;10.83;;
49978;SDS011;35869;50.990;6.962;2023-04-06T22:35:58;15.18;;;12.18;;
49978;SDS011;35869;50.990;6.962;2023-04-06T22:40:58;17.23;;;12.55;;
49978;SDS011;35869;50.990;6.962;2023-04-06T22:45:58;19.75;;;14.05;;
49978;SDS011;35869;50.990;6.962;2023-04-06T22:50:58;20.27;;;14.35;;
49978;SDS011;35869;50.990;6.962;2023-04-06T22:55:58;24.73;;;17.40;;
49978;SDS011;35869;50.990;6.962;2023-04-06T23:00:59;23.40;;;14.80;;
49978;SDS011;35869;50.990;6.962;2023-04-06T23:05:59;30.25;;;20.45;;
49978;SDS011;35869;50.990;6.962;2023-04-06T23:10:59;25.58;;;18.80;;
49978;SDS011;35869;50.990;6.962;2023-04-06T23:15:59;28.88;;;20.15;;
49978;SDS011;35869;50.990;6.962;2023-04-06T23:20:59;20.75;;;16.48;;
49978;SDS011;35869;50.990;6.962;2023-04-06T23:26:00;29.45;;;20.17;;
49978;SDS011;35869;50.990;6.962;2023-04-06T23:31:00;30.20;;;21.48;;
49978;SDS011;35869;50.990;6.962;2023-04-06T23:36:00;24.83;;;18.75;;
49978;SDS011;35869;50.990;6.962;2023-04-06T23:41:00;31.60;;;23.05;;
49978;SDS011;35869;50.990;6.962;2023-04-06T23:46:00;26.77;;;19.08;;
49978;SDS011;35869;50.990;6.962;2023-04-06T23:51:01;27.05;;;18.63;;
49978;SDS011;35869;50.990;6.962;2023-04-06T23:56:01;24.70;;;18.38;;
